sensor_id;sensor_type;location;lat;lon;timestamp;pressure;altitude;pressure_sealevel;temperature;humidity
78431;BME280;67727;50.236;22.452;2024-01-06T00:00:16;98913.02;;;0.31;84.64
78431;BME280;67727;50.236;22.452;2024-01-06T00:03:03;98912.32;;;0.35;84.53
78431;BME280;67727;50.236;22.452;2024-01-06T00:05:30;98909.21;;;0.37;84.24
78431;BME280;67727;50.236;22.452;2024-01-06T00:07:57;98906.98;;;0.38;84.16
78431;BME280;67727;50.236;22.452;2024-01-06T00:10:24;98913.67;;;0.39;83.83
78431;BME280;67727;50.236;22.452;2024-01-06T00:12:51;98919.32;;;0.38;83.84
78431;BME280;67727;50.236;22.452;2024-01-06T00:15:18;98926.12;;;0.38;84.09
78431;BME280;67727;50.236;22.452;2024-01-06T00:17:44;98918.73;;;0.37;83.95
78431;BME280;67727;50.236;22.452;2024-01-06T00:20:12;98918.11;;;0.36;84.08
78431;BME280;67727;50.236;22.452;2024-01-06T00:22:39;98917.61;;;0.36;84.26
78431;BME280;67727;50.236;22.452;2024-01-06T00:25:06;98913.91;;;0.37;84.12
78431;BME280;67727;50.236;22.452;2024-01-06T00:27:33;98914.98;;;0.36;84.00
78431;BME280;67727;50.236;22.452;2024-01-06T00:30:00;98921.34;;;0.37;84.29
78431;BME280;67727;50.236;22.452;2024-01-06T00:32:27;98923.15;;;0.38;84.31
78431;BME280;67727;50.236;22.452;2024-01-06T00:34:54;98927.29;;;0.40;84.32
78431;BME280;67727;50.236;22.452;2024-01-06T00:37:21;98925.87;;;0.45;84.43
78431;BME280;67727;50.236;22.452;2024-01-06T00:39:48;98926.70;;;0.47;84.23
78431;BME280;67727;50.236;22.452;2024-01-06T00:42:15;98915.96;;;0.49;84.09
78431;BME280;67727;50.236;22.452;2024-01-06T00:44:42;98919.16;;;0.46;83.86
78431;BME280;67727;50.236;22.452;2024-01-06T00:47:09;98919.77;;;0.45;84.08
78431;BME280;67727;50.236;22.452;2024-01-06T00:49:36;98923.67;;;0.42;84.09
78431;BME280;67727;50.236;22.452;2024-01-06T00:52:03;98923.39;;;0.37;84.33
78431;BME280;67727;50.236;22.452;2024-01-06T00:54:30;98915.98;;;0.35;84.26
78431;BME280;67727;50.236;22.452;2024-01-06T00:56:57;98909.48;;;0.34;84.16
78431;BME280;67727;50.236;22.452;2024-01-06T00:59:24;98904.41;;;0.34;84.49
78431;BME280;67727;50.236;22.452;2024-01-06T01:01:50;98897.75;;;0.37;84.54
78431;BME280;67727;50.236;22.452;2024-01-06T01:04:17;98893.67;;;0.40;84.47
78431;BME280;67727;50.236;22.452;2024-01-06T01:06:44;98893.72;;;0.43;84.36
78431;BME280;67727;50.236;22.452;2024-01-06T01:09:11;98895.23;;;0.46;84.44
78431;BME280;67727;50.236;22.452;2024-01-06T01:11:41;98896.48;;;0.47;84.52
78431;BME280;67727;50.236;22.452;2024-01-06T01:14:08;98898.35;;;0.48;84.19
78431;BME280;67727;50.236;22.452;2024-01-06T01:16:35;98896.70;;;0.49;84.41
78431;BME280;67727;50.236;22.452;2024-01-06T01:19:01;98902.58;;;0.49;84.30
78431;BME280;67727;50.236;22.452;2024-01-06T01:21:28;98903.73;;;0.48;84.41
78431;BME280;67727;50.236;22.452;2024-01-06T01:23:55;98899.35;;;0.46;84.32
78431;BME280;67727;50.236;22.452;2024-01-06T01:26:22;98899.64;;;0.45;84.35
78431;BME280;67727;50.236;22.452;2024-01-06T01:28:49;98896.89;;;0.44;84.38
78431;BME280;67727;50.236;22.452;2024-01-06T01:31:16;98898.73;;;0.45;84.50
78431;BME280;67727;50.236;22.452;2024-01-06T01:33:42;98901.90;;;0.47;84.64
78431;BME280;67727;50.236;22.452;2024-01-06T01:36:09;98894.91;;;0.51;84.56
78431;BME280;67727;50.236;22.452;2024-01-06T01:38:36;98892.22;;;0.54;84.60
78431;BME280;67727;50.236;22.452;2024-01-06T01:41:03;98895.89;;;0.58;84.30
78431;BME280;67727;50.236;22.452;2024-01-06T01:43:30;98895.17;;;0.62;84.29
78431;BME280;67727;50.236;22.452;2024-01-06T01:45:57;98895.27;;;0.67;84.52
78431;BME280;67727;50.236;22.452;2024-01-06T01:48:24;98895.56;;;0.69;84.31
78431;BME280;67727;50.236;22.452;2024-01-06T01:50:53;98896.52;;;0.70;84.23
78431;BME280;67727;50.236;22.452;2024-01-06T01:53:20;98893.81;;;0.71;84.36
78431;BME280;67727;50.236;22.452;2024-01-06T01:55:48;98893.95;;;0.72;84.46
78431;BME280;67727;50.236;22.452;2024-01-06T01:58:16;98882.39;;;0.71;84.25
78431;BME280;67727;50.236;22.452;2024-01-06T02:00:43;98886.08;;;0.69;84.05
78431;BME280;67727;50.236;22.452;2024-01-06T02:03:12;98882.88;;;0.68;84.15
78431;BME280;67727;50.236;22.452;2024-01-06T02:05:40;98881.89;;;0.67;84.18
78431;BME280;67727;50.236;22.452;2024-01-06T02:08:06;98884.79;;;0.68;84.19
78431;BME280;67727;50.236;22.452;2024-01-06T02:10:34;98877.52;;;0.67;84.12
78431;BME280;67727;50.236;22.452;2024-01-06T02:13:11;98874.21;;;0.69;84.31
78431;BME280;67727;50.236;22.452;2024-01-06T02:15:38;98870.95;;;0.72;84.63
78431;BME280;67727;50.236;22.452;2024-01-06T02:18:05;98869.92;;;0.74;84.55
78431;BME280;67727;50.236;22.452;2024-01-06T02:20:33;98871.73;;;0.75;84.38
78431;BME280;67727;50.236;22.452;2024-01-06T02:23:00;98870.93;;;0.76;84.24
78431;BME280;67727;50.236;22.452;2024-01-06T02:25:27;98873.30;;;0.77;84.21
78431;BME280;67727;50.236;22.452;2024-01-06T02:27:54;98879.88;;;0.78;84.01
78431;BME280;67727;50.236;22.452;2024-01-06T02:30:21;98875.74;;;0.75;84.30
78431;BME280;67727;50.236;22.452;2024-01-06T02:32:50;98874.61;;;0.74;84.21
78431;BME280;67727;50.236;22.452;2024-01-06T02:35:17;98875.11;;;0.75;84.62
78431;BME280;67727;50.236;22.452;2024-01-06T02:37:44;98876.54;;;0.74;84.17
78431;BME280;67727;50.236;22.452;2024-01-06T02:40:11;98873.46;;;0.75;84.13
78431;BME280;67727;50.236;22.452;2024-01-06T02:42:38;98869.52;;;0.79;84.63
78431;BME280;67727;50.236;22.452;2024-01-06T02:45:07;98866.78;;;0.81;84.24
78431;BME280;67727;50.236;22.452;2024-01-06T02:47:34;98864.60;;;0.84;84.13
78431;BME280;67727;50.236;22.452;2024-01-06T02:50:01;98857.89;;;0.89;84.32
78431;BME280;67727;50.236;22.452;2024-01-06T02:52:28;98853.46;;;0.92;84.21
78431;BME280;67727;50.236;22.452;2024-01-06T02:54:55;98848.02;;;0.94;84.21
78431;BME280;67727;50.236;22.452;2024-01-06T02:57:22;98854.63;;;0.96;84.17
78431;BME280;67727;50.236;22.452;2024-01-06T02:59:49;98857.20;;;0.96;84.28
78431;BME280;67727;50.236;22.452;2024-01-06T03:02:16;98858.87;;;0.97;84.22
78431;BME280;67727;50.236;22.452;2024-01-06T03:04:43;98865.23;;;0.96;84.08
78431;BME280;67727;50.236;22.452;2024-01-06T03:07:10;98857.57;;;0.94;84.19
78431;BME280;67727;50.236;22.452;2024-01-06T03:09:37;98853.46;;;0.92;83.67
78431;BME280;67727;50.236;22.452;2024-01-06T03:12:06;98853.41;;;0.89;84.03
78431;BME280;67727;50.236;22.452;2024-01-06T03:14:34;98855.26;;;0.89;84.00
78431;BME280;67727;50.236;22.452;2024-01-06T03:17:01;98849.34;;;0.91;84.24
78431;BME280;67727;50.236;22.452;2024-01-06T03:19:30;98852.64;;;0.93;84.14
78431;BME280;67727;50.236;22.452;2024-01-06T03:21:57;98858.64;;;0.96;84.25
78431;BME280;67727;50.236;22.452;2024-01-06T03:24:25;98860.21;;;0.98;84.10
78431;BME280;67727;50.236;22.452;2024-01-06T03:26:52;98862.29;;;1.00;84.35
78431;BME280;67727;50.236;22.452;2024-01-06T03:29:19;98852.65;;;1.02;84.04
78431;BME280;67727;50.236;22.452;2024-01-06T03:31:46;98849.76;;;1.04;84.02
78431;BME280;67727;50.236;22.452;2024-01-06T03:34:13;98854.41;;;1.00;83.86
78431;BME280;67727;50.236;22.452;2024-01-06T03:36:40;98854.59;;;0.98;84.18
78431;BME280;67727;50.236;22.452;2024-01-06T03:39:07;98852.31;;;0.97;84.32
78431;BME280;67727;50.236;22.452;2024-01-06T03:41:34;98849.30;;;0.95;84.16
78431;BME280;67727;50.236;22.452;2024-01-06T03:44:01;98854.27;;;0.96;84.34
78431;BME280;67727;50.236;22.452;2024-01-06T03:46:28;98859.11;;;0.98;84.46
78431;BME280;67727;50.236;22.452;2024-01-06T03:48:55;98859.20;;;1.01;84.50
78431;BME280;67727;50.236;22.452;2024-01-06T03:51:22;98853.22;;;1.04;84.58
78431;BME280;67727;50.236;22.452;2024-01-06T03:53:48;98849.39;;;1.08;84.70
78431;BME280;67727;50.236;22.452;2024-01-06T03:56:15;98851.41;;;1.12;84.41
78431;BME280;67727;50.236;22.452;2024-01-06T03:58:42;98850.48;;;1.17;84.35
78431;BME280;67727;50.236;22.452;2024-01-06T04:01:09;98853.29;;;1.19;84.27
78431;BME280;67727;50.236;22.452;2024-01-06T04:03:37;98858.36;;;1.16;84.08
78431;BME280;67727;50.236;22.452;2024-01-06T04:06:06;98860.73;;;1.14;84.44
78431;BME280;67727;50.236;22.452;2024-01-06T04:08:33;98862.90;;;1.13;84.50
78431;BME280;67727;50.236;22.452;2024-01-06T04:10:59;98864.70;;;1.12;84.89
78431;BME280;67727;50.236;22.452;2024-01-06T04:13:26;98866.89;;;1.13;84.73
78431;BME280;67727;50.236;22.452;2024-01-06T04:15:53;98864.27;;;1.13;84.93
78431;BME280;67727;50.236;22.452;2024-01-06T04:18:20;98863.15;;;1.14;84.81
78431;BME280;67727;50.236;22.452;2024-01-06T04:20:47;98855.80;;;1.16;84.71
78431;BME280;67727;50.236;22.452;2024-01-06T04:23:14;98853.61;;;1.17;84.41
78431;BME280;67727;50.236;22.452;2024-01-06T04:25:41;98855.45;;;1.18;84.69
78431;BME280;67727;50.236;22.452;2024-01-06T04:28:08;98862.52;;;1.19;84.86
78431;BME280;67727;50.236;22.452;2024-01-06T04:30:34;98859.75;;;1.20;84.79
78431;BME280;67727;50.236;22.452;2024-01-06T04:33:02;98851.06;;;1.22;84.71
78431;BME280;67727;50.236;22.452;2024-01-06T04:35:29;98845.41;;;1.25;84.79
78431;BME280;67727;50.236;22.452;2024-01-06T04:37:56;98841.11;;;1.26;84.82
78431;BME280;67727;50.236;22.452;2024-01-06T04:40:23;98847.34;;;1.28;84.66
78431;BME280;67727;50.236;22.452;2024-01-06T04:42:50;98846.88;;;1.30;84.65
78431;BME280;67727;50.236;22.452;2024-01-06T04:45:17;98848.98;;;1.28;84.50
78431;BME280;67727;50.236;22.452;2024-01-06T04:47:46;98848.23;;;1.26;84.70
78431;BME280;67727;50.236;22.452;2024-01-06T04:50:13;98849.32;;;1.24;84.66
78431;BME280;67727;50.236;22.452;2024-01-06T04:52:39;98849.73;;;1.23;84.65
78431;BME280;67727;50.236;22.452;2024-01-06T04:55:07;98847.76;;;1.22;84.59
78431;BME280;67727;50.236;22.452;2024-01-06T04:57:34;98851.36;;;1.21;84.71
78431;BME280;67727;50.236;22.452;2024-01-06T05:00:00;98853.45;;;1.21;84.91
78431;BME280;67727;50.236;22.452;2024-01-06T05:02:28;98850.21;;;1.20;84.73
78431;BME280;67727;50.236;22.452;2024-01-06T05:04:55;98851.95;;;1.20;85.00
78431;BME280;67727;50.236;22.452;2024-01-06T05:07:22;98855.58;;;1.20;84.73
78431;BME280;67727;50.236;22.452;2024-01-06T05:09:49;98850.19;;;1.20;85.11
78431;BME280;67727;50.236;22.452;2024-01-06T05:12:15;98841.58;;;1.21;85.26
78431;BME280;67727;50.236;22.452;2024-01-06T05:14:42;98844.60;;;1.22;84.92
78431;BME280;67727;50.236;22.452;2024-01-06T05:17:09;98844.98;;;1.24;85.15
78431;BME280;67727;50.236;22.452;2024-01-06T05:19:36;98853.70;;;1.28;85.29
78431;BME280;67727;50.236;22.452;2024-01-06T05:22:03;98863.09;;;1.29;84.79
78431;BME280;67727;50.236;22.452;2024-01-06T05:24:30;98865.17;;;1.31;84.95
78431;BME280;67727;50.236;22.452;2024-01-06T05:26:57;98858.92;;;1.31;84.93
78431;BME280;67727;50.236;22.452;2024-01-06T05:29:24;98854.66;;;1.32;85.04
78431;BME280;67727;50.236;22.452;2024-01-06T05:31:52;98849.77;;;1.34;85.11
78431;BME280;67727;50.236;22.452;2024-01-06T05:34:19;98850.83;;;1.36;85.07
78431;BME280;67727;50.236;22.452;2024-01-06T05:36:46;98850.61;;;1.39;84.81
78431;BME280;67727;50.236;22.452;2024-01-06T05:39:13;98854.41;;;1.41;84.69
78431;BME280;67727;50.236;22.452;2024-01-06T05:41:40;98863.61;;;1.45;84.47
78431;BME280;67727;50.236;22.452;2024-01-06T05:44:07;98860.09;;;1.48;84.81
78431;BME280;67727;50.236;22.452;2024-01-06T05:46:34;98859.39;;;1.50;84.61
78431;BME280;67727;50.236;22.452;2024-01-06T05:49:01;98857.83;;;1.49;84.67
78431;BME280;67727;50.236;22.452;2024-01-06T05:51:28;98854.23;;;1.50;84.68
78431;BME280;67727;50.236;22.452;2024-01-06T05:53:55;98856.67;;;1.53;84.76
78431;BME280;67727;50.236;22.452;2024-01-06T05:56:25;98863.19;;;1.54;84.57
78431;BME280;67727;50.236;22.452;2024-01-06T05:58:53;98862.33;;;1.55;84.82
78431;BME280;67727;50.236;22.452;2024-01-06T06:01:20;98858.39;;;1.58;84.60
78431;BME280;67727;50.236;22.452;2024-01-06T06:03:48;98862.56;;;1.62;84.80
78431;BME280;67727;50.236;22.452;2024-01-06T06:06:16;98862.09;;;1.66;84.60
78431;BME280;67727;50.236;22.452;2024-01-06T06:08:44;98869.21;;;1.68;84.42
78431;BME280;67727;50.236;22.452;2024-01-06T06:11:11;98864.65;;;1.70;84.57
78431;BME280;67727;50.236;22.452;2024-01-06T06:13:41;98870.34;;;1.70;84.44
78431;BME280;67727;50.236;22.452;2024-01-06T06:16:12;98864.89;;;1.69;84.24
78431;BME280;67727;50.236;22.452;2024-01-06T06:18:39;98873.17;;;1.66;84.37
78431;BME280;67727;50.236;22.452;2024-01-06T06:21:07;98877.69;;;1.64;84.38
78431;BME280;67727;50.236;22.452;2024-01-06T06:23:37;98879.88;;;1.63;84.20
78431;BME280;67727;50.236;22.452;2024-01-06T06:26:06;98873.40;;;1.62;84.60
78431;BME280;67727;50.236;22.452;2024-01-06T06:28:34;98874.48;;;1.61;84.40
78431;BME280;67727;50.236;22.452;2024-01-06T06:31:01;98880.52;;;1.60;84.35
78431;BME280;67727;50.236;22.452;2024-01-06T06:33:29;98879.44;;;1.58;84.38
78431;BME280;67727;50.236;22.452;2024-01-06T06:35:56;98874.06;;;1.60;84.36
78431;BME280;67727;50.236;22.452;2024-01-06T06:38:25;98874.23;;;1.62;84.66
78431;BME280;67727;50.236;22.452;2024-01-06T06:40:52;98872.73;;;1.65;84.53
78431;BME280;67727;50.236;22.452;2024-01-06T06:43:19;98871.70;;;1.69;84.52
78431;BME280;67727;50.236;22.452;2024-01-06T06:45:46;98875.63;;;1.72;84.71
78431;BME280;67727;50.236;22.452;2024-01-06T06:48:13;98874.36;;;1.70;84.19
78431;BME280;67727;50.236;22.452;2024-01-06T06:50:40;98870.84;;;1.67;84.65
78431;BME280;67727;50.236;22.452;2024-01-06T06:53:08;98874.53;;;1.64;84.80
78431;BME280;67727;50.236;22.452;2024-01-06T06:55:35;98877.45;;;1.63;84.67
78431;BME280;67727;50.236;22.452;2024-01-06T06:58:04;98883.39;;;1.63;84.87
78431;BME280;67727;50.236;22.452;2024-01-06T07:00:32;98885.80;;;1.61;84.92
78431;BME280;67727;50.236;22.452;2024-01-06T07:02:59;98886.35;;;1.61;84.87
78431;BME280;67727;50.236;22.452;2024-01-06T07:05:26;98885.08;;;1.64;84.83
78431;BME280;67727;50.236;22.452;2024-01-06T07:07:53;98887.46;;;1.68;84.96
78431;BME280;67727;50.236;22.452;2024-01-06T07:10:21;98894.60;;;1.74;84.97
78431;BME280;67727;50.236;22.452;2024-01-06T07:12:47;98897.34;;;1.80;84.94
78431;BME280;67727;50.236;22.452;2024-01-06T07:15:14;98898.38;;;1.85;84.85
78431;BME280;67727;50.236;22.452;2024-01-06T07:17:41;98898.52;;;1.89;84.95
78431;BME280;67727;50.236;22.452;2024-01-06T07:20:08;98900.12;;;1.94;84.76
78431;BME280;67727;50.236;22.452;2024-01-06T07:22:36;98905.45;;;1.96;84.74
78431;BME280;67727;50.236;22.452;2024-01-06T07:25:03;98900.83;;;1.99;84.61
78431;BME280;67727;50.236;22.452;2024-01-06T07:27:30;98901.07;;;2.00;84.65
78431;BME280;67727;50.236;22.452;2024-01-06T07:29:56;98908.30;;;2.01;84.44
78431;BME280;67727;50.236;22.452;2024-01-06T07:32:24;98910.88;;;2.01;84.28
78431;BME280;67727;50.236;22.452;2024-01-06T07:34:51;98911.02;;;2.02;84.74
78431;BME280;67727;50.236;22.452;2024-01-06T07:37:18;98916.90;;;2.04;84.74
78431;BME280;67727;50.236;22.452;2024-01-06T07:39:45;98913.11;;;2.06;84.59
78431;BME280;67727;50.236;22.452;2024-01-06T07:42:12;98917.04;;;2.06;84.45
78431;BME280;67727;50.236;22.452;2024-01-06T07:44:39;98917.62;;;2.06;84.35
78431;BME280;67727;50.236;22.452;2024-01-06T07:47:06;98913.95;;;2.06;84.49
78431;BME280;67727;50.236;22.452;2024-01-06T07:49:33;98919.33;;;2.06;84.65
78431;BME280;67727;50.236;22.452;2024-01-06T07:52:00;98918.04;;;2.09;84.77
78431;BME280;67727;50.236;22.452;2024-01-06T07:54:27;98927.12;;;2.12;84.89
78431;BME280;67727;50.236;22.452;2024-01-06T07:56:54;98924.88;;;2.14;85.04
78431;BME280;67727;50.236;22.452;2024-01-06T07:59:21;98930.02;;;2.13;85.09
78431;BME280;67727;50.236;22.452;2024-01-06T08:01:48;98934.24;;;2.10;85.32
78431;BME280;67727;50.236;22.452;2024-01-06T08:04:15;98940.06;;;2.08;85.36
78431;BME280;67727;50.236;22.452;2024-01-06T08:06:42;98939.38;;;2.06;85.20
78431;BME280;67727;50.236;22.452;2024-01-06T08:09:09;98940.31;;;2.07;85.29
78431;BME280;67727;50.236;22.452;2024-01-06T08:11:36;98942.90;;;2.07;85.25
78431;BME280;67727;50.236;22.452;2024-01-06T08:14:03;98944.66;;;2.07;85.28
78431;BME280;67727;50.236;22.452;2024-01-06T08:16:29;98950.28;;;2.08;85.44
78431;BME280;67727;50.236;22.452;2024-01-06T08:18:57;98952.05;;;2.08;85.77
78431;BME280;67727;50.236;22.452;2024-01-06T08:21:24;98946.79;;;2.11;85.49
78431;BME280;67727;50.236;22.452;2024-01-06T08:23:52;98949.60;;;2.12;85.75
78431;BME280;67727;50.236;22.452;2024-01-06T08:26:19;98950.74;;;2.15;85.86
78431;BME280;67727;50.236;22.452;2024-01-06T08:28:46;98951.34;;;2.16;85.82
78431;BME280;67727;50.236;22.452;2024-01-06T08:31:13;98951.80;;;2.16;85.76
78431;BME280;67727;50.236;22.452;2024-01-06T08:33:40;98952.73;;;2.18;85.80
78431;BME280;67727;50.236;22.452;2024-01-06T08:36:07;98949.69;;;2.21;85.75
78431;BME280;67727;50.236;22.452;2024-01-06T08:38:34;98952.81;;;2.25;85.88
78431;BME280;67727;50.236;22.452;2024-01-06T08:41:01;98955.29;;;2.29;85.68
78431;BME280;67727;50.236;22.452;2024-01-06T08:43:28;98952.44;;;2.32;85.55
78431;BME280;67727;50.236;22.452;2024-01-06T08:45:55;98953.05;;;2.35;85.63
78431;BME280;67727;50.236;22.452;2024-01-06T08:48:22;98952.48;;;2.41;85.84
78431;BME280;67727;50.236;22.452;2024-01-06T08:50:49;98948.58;;;2.50;86.06
78431;BME280;67727;50.236;22.452;2024-01-06T08:53:16;98943.64;;;2.58;85.65
78431;BME280;67727;50.236;22.452;2024-01-06T08:55:43;98944.66;;;2.63;85.38
78431;BME280;67727;50.236;22.452;2024-01-06T08:58:10;98942.21;;;2.65;85.25
78431;BME280;67727;50.236;22.452;2024-01-06T09:00:37;98936.89;;;2.66;85.31
78431;BME280;67727;50.236;22.452;2024-01-06T09:03:04;98936.02;;;2.68;85.05
78431;BME280;67727;50.236;22.452;2024-01-06T09:05:31;98938.05;;;2.70;85.06
78431;BME280;67727;50.236;22.452;2024-01-06T09:07:58;98933.60;;;2.71;84.90
78431;BME280;67727;50.236;22.452;2024-01-06T09:10:25;98935.33;;;2.75;85.04
78431;BME280;67727;50.236;22.452;2024-01-06T09:12:52;98934.37;;;2.80;85.19
78431;BME280;67727;50.236;22.452;2024-01-06T09:15:19;98934.67;;;2.86;85.61
78431;BME280;67727;50.236;22.452;2024-01-06T09:17:46;98930.25;;;2.92;85.36
78431;BME280;67727;50.236;22.452;2024-01-06T09:20:12;98930.06;;;2.95;85.15
78431;BME280;67727;50.236;22.452;2024-01-06T09:22:39;98925.46;;;2.98;84.98
78431;BME280;67727;50.236;22.452;2024-01-06T09:25:07;98924.39;;;2.98;84.89
78431;BME280;67727;50.236;22.452;2024-01-06T09:27:34;98922.79;;;2.98;85.02
78431;BME280;67727;50.236;22.452;2024-01-06T09:30:01;98926.09;;;2.97;84.83
78431;BME280;67727;50.236;22.452;2024-01-06T09:32:28;98924.59;;;2.94;84.89
78431;BME280;67727;50.236;22.452;2024-01-06T09:34:55;98918.56;;;2.93;84.84
78431;BME280;67727;50.236;22.452;2024-01-06T09:37:22;98914.27;;;2.94;84.88
78431;BME280;67727;50.236;22.452;2024-01-06T09:39:49;98913.39;;;2.95;85.03
78431;BME280;67727;50.236;22.452;2024-01-06T09:42:16;98913.10;;;2.94;84.65
78431;BME280;67727;50.236;22.452;2024-01-06T09:44:43;98912.82;;;2.91;85.11
78431;BME280;67727;50.236;22.452;2024-01-06T09:47:12;98917.88;;;2.88;84.90
78431;BME280;67727;50.236;22.452;2024-01-06T09:49:38;98915.37;;;2.85;85.12
78431;BME280;67727;50.236;22.452;2024-01-06T09:52:13;98922.33;;;2.85;85.23
78431;BME280;67727;50.236;22.452;2024-01-06T09:54:48;98923.45;;;2.84;85.44
78431;BME280;67727;50.236;22.452;2024-01-06T09:57:17;98928.78;;;2.85;85.63
78431;BME280;67727;50.236;22.452;2024-01-06T09:59:44;98927.89;;;2.89;85.52
78431;BME280;67727;50.236;22.452;2024-01-06T10:02:14;98930.23;;;2.88;85.51
78431;BME280;67727;50.236;22.452;2024-01-06T10:04:43;98928.66;;;2.88;85.97
78431;BME280;67727;50.236;22.452;2024-01-06T10:07:11;98931.60;;;2.87;86.08
78431;BME280;67727;50.236;22.452;2024-01-06T10:09:41;98934.28;;;2.86;86.41
78431;BME280;67727;50.236;22.452;2024-01-06T10:12:09;98928.54;;;2.88;86.22
78431;BME280;67727;50.236;22.452;2024-01-06T10:14:37;98930.52;;;2.90;86.53
78431;BME280;67727;50.236;22.452;2024-01-06T10:17:08;98930.73;;;2.96;86.90
78431;BME280;67727;50.236;22.452;2024-01-06T10:19:35;98934.94;;;3.01;86.80
78431;BME280;67727;50.236;22.452;2024-01-06T10:22:05;98928.39;;;3.06;86.96
78431;BME280;67727;50.236;22.452;2024-01-06T10:24:32;98929.18;;;3.08;87.04
78431;BME280;67727;50.236;22.452;2024-01-06T10:26:59;98923.71;;;3.14;86.82
78431;BME280;67727;50.236;22.452;2024-01-06T10:29:26;98920.80;;;3.21;86.76
78431;BME280;67727;50.236;22.452;2024-01-06T10:31:54;98916.23;;;3.28;86.57
78431;BME280;67727;50.236;22.452;2024-01-06T10:34:23;98908.04;;;3.35;86.42
78431;BME280;67727;50.236;22.452;2024-01-06T10:36:50;98901.64;;;3.40;86.36
78431;BME280;67727;50.236;22.452;2024-01-06T10:39:21;98892.27;;;3.43;86.14
78431;BME280;67727;50.236;22.452;2024-01-06T10:41:49;98889.64;;;3.43;85.94
78431;BME280;67727;50.236;22.452;2024-01-06T10:44:16;98885.45;;;3.45;86.42
78431;BME280;67727;50.236;22.452;2024-01-06T10:46:44;98877.27;;;3.46;86.13
78431;BME280;67727;50.236;22.452;2024-01-06T10:49:12;98872.00;;;3.47;86.20
78431;BME280;67727;50.236;22.452;2024-01-06T10:51:39;98876.42;;;3.48;86.20
78431;BME280;67727;50.236;22.452;2024-01-06T10:54:08;98887.82;;;3.49;86.21
78431;BME280;67727;50.236;22.452;2024-01-06T10:56:37;98886.25;;;3.51;85.89
78431;BME280;67727;50.236;22.452;2024-01-06T10:59:05;98880.81;;;3.51;86.30
78431;BME280;67727;50.236;22.452;2024-01-06T11:01:34;98877.88;;;3.51;86.24
78431;BME280;67727;50.236;22.452;2024-01-06T11:04:02;98878.75;;;3.51;86.27
78431;BME280;67727;50.236;22.452;2024-01-06T11:06:33;98876.92;;;3.51;86.46
78431;BME280;67727;50.236;22.452;2024-01-06T11:09:11;98875.02;;;3.53;86.23
78431;BME280;67727;50.236;22.452;2024-01-06T11:11:40;98875.70;;;3.55;86.26
78431;BME280;67727;50.236;22.452;2024-01-06T11:14:18;98874.80;;;3.58;86.34
78431;BME280;67727;50.236;22.452;2024-01-06T11:16:46;98868.42;;;3.59;86.25
78431;BME280;67727;50.236;22.452;2024-01-06T11:22:19;98859.98;;;3.57;86.41
78431;BME280;67727;50.236;22.452;2024-01-06T11:24:53;98858.59;;;3.53;86.60
78431;BME280;67727;50.236;22.452;2024-01-06T11:27:27;98861.61;;;3.47;86.27
78431;BME280;67727;50.236;22.452;2024-01-06T11:30:01;98863.05;;;3.43;86.57
78431;BME280;67727;50.236;22.452;2024-01-06T11:32:38;98860.15;;;3.41;86.72
78431;BME280;67727;50.236;22.452;2024-01-06T11:35:10;98860.90;;;3.37;86.74
78431;BME280;67727;50.236;22.452;2024-01-06T11:45:25;98857.02;;;3.46;86.87
78431;BME280;67727;50.236;22.452;2024-01-06T11:47:56;98864.23;;;3.49;86.99
78431;BME280;67727;50.236;22.452;2024-01-06T11:50:26;98868.90;;;3.49;86.85
78431;BME280;67727;50.236;22.452;2024-01-06T11:52:54;98869.21;;;3.48;86.78
78431;BME280;67727;50.236;22.452;2024-01-06T11:55:22;98870.83;;;3.49;86.83
78431;BME280;67727;50.236;22.452;2024-01-06T11:57:49;98871.34;;;3.48;86.60
78431;BME280;67727;50.236;22.452;2024-01-06T12:00:17;98871.17;;;3.46;86.66
78431;BME280;67727;50.236;22.452;2024-01-06T12:02:44;98872.43;;;3.42;86.73
78431;BME280;67727;50.236;22.452;2024-01-06T12:05:13;98878.52;;;3.39;86.92
78431;BME280;67727;50.236;22.452;2024-01-06T12:07:42;98880.84;;;3.39;86.90
78431;BME280;67727;50.236;22.452;2024-01-06T12:10:09;98883.66;;;3.40;86.74
78431;BME280;67727;50.236;22.452;2024-01-06T12:12:38;98888.45;;;3.41;87.03
78431;BME280;67727;50.236;22.452;2024-01-06T12:15:05;98888.21;;;3.40;87.10
78431;BME280;67727;50.236;22.452;2024-01-06T12:17:35;98893.54;;;3.37;86.81
78431;BME280;67727;50.236;22.452;2024-01-06T12:20:02;98890.33;;;3.34;86.89
78431;BME280;67727;50.236;22.452;2024-01-06T12:22:30;98895.75;;;3.33;87.05
78431;BME280;67727;50.236;22.452;2024-01-06T12:24:58;98899.95;;;3.31;86.83
78431;BME280;67727;50.236;22.452;2024-01-06T12:27:25;98897.34;;;3.29;87.05
78431;BME280;67727;50.236;22.452;2024-01-06T12:29:52;98901.65;;;3.27;87.24
78431;BME280;67727;50.236;22.452;2024-01-06T12:32:20;98905.34;;;3.25;87.02
78431;BME280;67727;50.236;22.452;2024-01-06T12:34:47;98902.13;;;3.23;87.18
78431;BME280;67727;50.236;22.452;2024-01-06T12:37:13;98901.33;;;3.22;87.29
78431;BME280;67727;50.236;22.452;2024-01-06T12:39:41;98900.45;;;3.22;87.08
78431;BME280;67727;50.236;22.452;2024-01-06T12:42:09;98905.82;;;3.22;87.33
78431;BME280;67727;50.236;22.452;2024-01-06T12:44:36;98910.92;;;3.22;87.43
78431;BME280;67727;50.236;22.452;2024-01-06T12:47:04;98916.55;;;3.22;87.48
78431;BME280;67727;50.236;22.452;2024-01-06T12:49:32;98918.88;;;3.21;87.45
78431;BME280;67727;50.236;22.452;2024-01-06T12:51:59;98919.85;;;3.22;87.57
78431;BME280;67727;50.236;22.452;2024-01-06T12:54:26;98919.52;;;3.23;87.36
78431;BME280;67727;50.236;22.452;2024-01-06T12:56:53;98924.98;;;3.21;87.33
78431;BME280;67727;50.236;22.452;2024-01-06T12:59:20;98928.23;;;3.18;87.36
78431;BME280;67727;50.236;22.452;2024-01-06T13:01:47;98928.68;;;3.17;87.35
78431;BME280;67727;50.236;22.452;2024-01-06T13:04:14;98930.27;;;3.15;87.41
78431;BME280;67727;50.236;22.452;2024-01-06T13:06:41;98930.24;;;3.12;87.34
78431;BME280;67727;50.236;22.452;2024-01-06T13:09:09;98932.10;;;3.11;87.56
78431;BME280;67727;50.236;22.452;2024-01-06T13:11:38;98928.64;;;3.10;87.81